sensor_id;sensor_type;location;lat;lon;timestamp;P1;durP1;ratioP1;P2;durP2;ratioP2
57433;SDS011;43277;52.672;6.984;2023-02-18T00:00:06;19.63;;;4.28;;
57433;SDS011;43277;52.672;6.984;2023-02-18T00:02:33;19.17;;;4.22;;
57433;SDS011;43277;52.672;6.984;2023-02-18T00:04:59;21.38;;;4.68;;
57433;SDS011;43277;52.672;6.984;2023-02-18T00:07:24;20.30;;;4.75;;
57433;SDS011;43277;52.672;6.984;2023-02-18T00:09:50;18.42;;;4.63;;
57433;SDS011;43277;52.672;6.984;2023-02-18T00:12:16;15.23;;;4.07;;
57433;SDS011;43277;52.672;6.984;2023-02-18T00:14:41;23.42;;;4.57;;
57433;SDS011;43277;52.672;6.984;2023-02-18T00:17:07;18.13;;;4.47;;
57433;SDS011;43277;52.672;6.984;2023-02-18T00:19:33;18.45;;;4.63;;
57433;SDS011;43277;52.672;6.984;2023-02-18T00:22:05;18.98;;;4.18;;
57433;SDS011;43277;52.672;6.984;2023-02-18T00:24:37;19.85;;;4.40;;
57433;SDS011;43277;52.672;6.984;2023-02-18T00:27:27;18.95;;;4.50;;
57433;SDS011;43277;52.672;6.984;2023-02-18T00:29:56;18.83;;;4.45;;
57433;SDS011;43277;52.672;6.984;2023-02-18T00:32:44;17.48;;;4.35;;
57433;SDS011;43277;52.672;6.984;2023-02-18T00:35:10;19.17;;;4.75;;
57433;SDS011;43277;52.672;6.984;2023-02-18T00:37:36;22.10;;;4.75;;
57433;SDS011;43277;52.672;6.984;2023-02-18T00:40:02;15.55;;;4.10;;
57433;SDS011;43277;52.672;6.984;2023-02-18T00:42:28;19.15;;;4.30;;
57433;SDS011;43277;52.672;6.984;2023-02-18T00:44:53;22.90;;;4.75;;
57433;SDS011;43277;52.672;6.984;2023-02-18T00:47:19;19.30;;;4.72;;
57433;SDS011;43277;52.672;6.984;2023-02-18T00:49:44;19.33;;;4.50;;
57433;SDS011;43277;52.672;6.984;2023-02-18T00:52:10;21.00;;;4.50;;
57433;SDS011;43277;52.672;6.984;2023-02-18T00:54:35;19.88;;;4.60;;
57433;SDS011;43277;52.672;6.984;2023-02-18T00:57:01;22.48;;;5.43;;
57433;SDS011;43277;52.672;6.984;2023-02-18T00:59:27;19.58;;;5.05;;
57433;SDS011;43277;52.672;6.984;2023-02-18T01:01:52;19.33;;;4.10;;
57433;SDS011;43277;52.672;6.984;2023-02-18T01:04:18;21.25;;;4.55;;
57433;SDS011;43277;52.672;6.984;2023-02-18T01:06:43;20.73;;;4.88;;
57433;SDS011;43277;52.672;6.984;2023-02-18T01:09:09;23.00;;;5.60;;
57433;SDS011;43277;52.672;6.984;2023-02-18T01:11:35;19.15;;;4.97;;
57433;SDS011;43277;52.672;6.984;2023-02-18T01:14:01;21.70;;;5.40;;
57433;SDS011;43277;52.672;6.984;2023-02-18T01:16:26;20.42;;;5.53;;
57433;SDS011;43277;52.672;6.984;2023-02-18T01:18:52;21.95;;;5.00;;
57433;SDS011;43277;52.672;6.984;2023-02-18T01:21:17;22.55;;;5.55;;
57433;SDS011;43277;52.672;6.984;2023-02-18T01:23:43;18.95;;;5.45;;
57433;SDS011;43277;52.672;6.984;2023-02-18T01:26:09;24.45;;;6.90;;
57433;SDS011;43277;52.672;6.984;2023-02-18T01:28:35;21.20;;;6.60;;
57433;SDS011;43277;52.672;6.984;2023-02-18T01:31:04;27.60;;;8.38;;
57433;SDS011;43277;52.672;6.984;2023-02-18T01:33:31;25.35;;;7.80;;
57433;SDS011;43277;52.672;6.984;2023-02-18T01:35:57;27.83;;;7.47;;
57433;SDS011;43277;52.672;6.984;2023-02-18T01:38:23;24.55;;;7.95;;
57433;SDS011;43277;52.672;6.984;2023-02-18T01:40:49;22.45;;;8.30;;
57433;SDS011;43277;52.672;6.984;2023-02-18T01:43:17;31.50;;;9.93;;
57433;SDS011;43277;52.672;6.984;2023-02-18T01:48:34;29.52;;;9.75;;
57433;SDS011;43277;52.672;6.984;2023-02-18T01:51:14;31.10;;;10.25;;
57433;SDS011;43277;52.672;6.984;2023-02-18T01:53:45;31.42;;;13.45;;
57433;SDS011;43277;52.672;6.984;2023-02-18T01:56:13;32.50;;;13.60;;
57433;SDS011;43277;52.672;6.984;2023-02-18T01:58:44;28.60;;;12.75;;
57433;SDS011;43277;52.672;6.984;2023-02-18T02:01:10;31.98;;;14.98;;
57433;SDS011;43277;52.672;6.984;2023-02-18T02:03:36;33.30;;;16.10;;
57433;SDS011;43277;52.672;6.984;2023-02-18T02:06:01;37.70;;;17.63;;
57433;SDS011;43277;52.672;6.984;2023-02-18T02:08:36;38.35;;;19.05;;
57433;SDS011;43277;52.672;6.984;2023-02-18T02:11:07;38.60;;;18.40;;
57433;SDS011;43277;52.672;6.984;2023-02-18T02:17:16;36.80;;;18.98;;
57433;SDS011;43277;52.672;6.984;2023-02-18T02:25:57;38.47;;;20.95;;
57433;SDS011;43277;52.672;6.984;2023-02-18T02:28:51;38.03;;;20.35;;
57433;SDS011;43277;52.672;6.984;2023-02-18T02:31:37;36.25;;;19.60;;
57433;SDS011;43277;52.672;6.984;2023-02-18T02:43:26;38.00;;;20.58;;
57433;SDS011;43277;52.672;6.984;2023-02-18T02:46:06;34.95;;;20.50;;
57433;SDS011;43277;52.672;6.984;2023-02-18T02:51:29;37.28;;;22.95;;
57433;SDS011;43277;52.672;6.984;2023-02-18T02:54:16;44.53;;;25.58;;
57433;SDS011;43277;52.672;6.984;2023-02-18T02:56:43;43.30;;;27.35;;
57433;SDS011;43277;52.672;6.984;2023-02-18T02:59:10;46.50;;;29.35;;
57433;SDS011;43277;52.672;6.984;2023-02-18T03:04:48;48.42;;;32.85;;
57433;SDS011;43277;52.672;6.984;2023-02-18T03:10:16;49.45;;;37.22;;
57433;SDS011;43277;52.672;6.984;2023-02-18T03:18:17;63.80;;;42.97;;
57433;SDS011;43277;52.672;6.984;2023-02-18T03:20:59;59.97;;;42.60;;
57433;SDS011;43277;52.672;6.984;2023-02-18T03:23:39;57.17;;;41.80;;
57433;SDS011;43277;52.672;6.984;2023-02-18T03:26:10;58.35;;;43.08;;
57433;SDS011;43277;52.672;6.984;2023-02-18T03:28:38;56.97;;;44.13;;
57433;SDS011;43277;52.672;6.984;2023-02-18T03:31:06;65.18;;;45.45;;
57433;SDS011;43277;52.672;6.984;2023-02-18T03:33:39;61.47;;;44.88;;
57433;SDS011;43277;52.672;6.984;2023-02-18T03:36:10;67.72;;;47.00;;
57433;SDS011;43277;52.672;6.984;2023-02-18T03:38:42;63.78;;;45.22;;
57433;SDS011;43277;52.672;6.984;2023-02-18T03:41:15;65.50;;;46.15;;
57433;SDS011;43277;52.672;6.984;2023-02-18T03:43:47;66.80;;;45.13;;
57433;SDS011;43277;52.672;6.984;2023-02-18T03:46:14;68.28;;;44.97;;
57433;SDS011;43277;52.672;6.984;2023-02-18T03:48:40;71.07;;;46.83;;
57433;SDS011;43277;52.672;6.984;2023-02-18T03:51:05;65.88;;;45.00;;
57433;SDS011;43277;52.672;6.984;2023-02-18T03:53:31;65.93;;;46.78;;
57433;SDS011;43277;52.672;6.984;2023-02-18T03:55:57;65.75;;;45.63;;
57433;SDS011;43277;52.672;6.984;2023-02-18T03:58:22;61.65;;;43.78;;
57433;SDS011;43277;52.672;6.984;2023-02-18T04:00:48;74.80;;;47.35;;
57433;SDS011;43277;52.672;6.984;2023-02-18T04:03:13;69.93;;;47.35;;
57433;SDS011;43277;52.672;6.984;2023-02-18T04:05:39;70.13;;;46.80;;
57433;SDS011;43277;52.672;6.984;2023-02-18T04:08:04;58.22;;;44.13;;
57433;SDS011;43277;52.672;6.984;2023-02-18T04:10:30;68.47;;;48.15;;
57433;SDS011;43277;52.672;6.984;2023-02-18T04:12:56;64.78;;;45.28;;
57433;SDS011;43277;52.672;6.984;2023-02-18T04:15:21;70.85;;;45.75;;
57433;SDS011;43277;52.672;6.984;2023-02-18T04:17:47;64.78;;;43.42;;
57433;SDS011;43277;52.672;6.984;2023-02-18T04:20:12;63.10;;;43.40;;
57433;SDS011;43277;52.672;6.984;2023-02-18T04:22:38;65.25;;;43.78;;
57433;SDS011;43277;52.672;6.984;2023-02-18T04:25:04;60.70;;;40.65;;
57433;SDS011;43277;52.672;6.984;2023-02-18T04:27:29;61.80;;;42.35;;
57433;SDS011;43277;52.672;6.984;2023-02-18T04:29:55;56.33;;;38.15;;
57433;SDS011;43277;52.672;6.984;2023-02-18T04:32:20;56.63;;;38.10;;
57433;SDS011;43277;52.672;6.984;2023-02-18T04:34:46;52.63;;;36.80;;
57433;SDS011;43277;52.672;6.984;2023-02-18T04:37:12;57.92;;;37.17;;
57433;SDS011;43277;52.672;6.984;2023-02-18T04:39:37;47.17;;;33.25;;
57433;SDS011;43277;52.672;6.984;2023-02-18T04:42:03;52.28;;;34.13;;
57433;SDS011;43277;52.672;6.984;2023-02-18T04:44:33;49.05;;;33.67;;
57433;SDS011;43277;52.672;6.984;2023-02-18T04:46:59;49.08;;;33.35;;
57433;SDS011;43277;52.672;6.984;2023-02-18T04:49:25;47.60;;;32.67;;
57433;SDS011;43277;52.672;6.984;2023-02-18T04:51:51;49.90;;;34.13;;
57433;SDS011;43277;52.672;6.984;2023-02-18T04:54:17;49.88;;;33.63;;
57433;SDS011;43277;52.672;6.984;2023-02-18T04:56:42;55.53;;;35.65;;
57433;SDS011;43277;52.672;6.984;2023-02-18T04:59:08;51.67;;;36.00;;
57433;SDS011;43277;52.672;6.984;2023-02-18T05:01:33;55.55;;;35.25;;
57433;SDS011;43277;52.672;6.984;2023-02-18T05:03:59;52.15;;;34.00;;
57433;SDS011;43277;52.672;6.984;2023-02-18T05:06:25;53.50;;;34.03;;
57433;SDS011;43277;52.672;6.984;2023-02-18T05:08:50;46.00;;;31.98;;
57433;SDS011;43277;52.672;6.984;2023-02-18T05:11:16;51.10;;;32.30;;
57433;SDS011;43277;52.672;6.984;2023-02-18T05:13:42;50.25;;;31.95;;
57433;SDS011;43277;52.672;6.984;2023-02-18T05:16:07;57.20;;;35.40;;
57433;SDS011;43277;52.672;6.984;2023-02-18T05:18:33;55.13;;;34.35;;
57433;SDS011;43277;52.672;6.984;2023-02-18T05:20:58;64.55;;;35.70;;
57433;SDS011;43277;52.672;6.984;2023-02-18T05:23:24;65.60;;;37.60;;
57433;SDS011;43277;52.672;6.984;2023-02-18T05:25:50;62.60;;;35.65;;
57433;SDS011;43277;52.672;6.984;2023-02-18T05:28:16;69.78;;;37.20;;
57433;SDS011;43277;52.672;6.984;2023-02-18T05:30:41;76.97;;;41.20;;
57433;SDS011;43277;52.672;6.984;2023-02-18T05:33:07;82.03;;;40.28;;
57433;SDS011;43277;52.672;6.984;2023-02-18T05:35:33;71.45;;;36.75;;
57433;SDS011;43277;52.672;6.984;2023-02-18T05:37:58;77.10;;;38.20;;
57433;SDS011;43277;52.672;6.984;2023-02-18T05:40:24;80.45;;;37.33;;
57433;SDS011;43277;52.672;6.984;2023-02-18T05:42:49;81.85;;;38.25;;
57433;SDS011;43277;52.672;6.984;2023-02-18T05:45:15;70.75;;;34.85;;
57433;SDS011;43277;52.672;6.984;2023-02-18T05:47:41;76.82;;;34.30;;
57433;SDS011;43277;52.672;6.984;2023-02-18T05:50:07;77.15;;;35.17;;
57433;SDS011;43277;52.672;6.984;2023-02-18T05:52:33;78.30;;;35.10;;
57433;SDS011;43277;52.672;6.984;2023-02-18T05:54:58;68.32;;;30.58;;
57433;SDS011;43277;52.672;6.984;2023-02-18T05:57:24;70.40;;;32.78;;
57433;SDS011;43277;52.672;6.984;2023-02-18T05:59:49;73.90;;;32.80;;
57433;SDS011;43277;52.672;6.984;2023-02-18T06:02:15;74.75;;;31.15;;
57433;SDS011;43277;52.672;6.984;2023-02-18T06:04:41;68.85;;;29.88;;
57433;SDS011;43277;52.672;6.984;2023-02-18T06:07:07;57.25;;;26.98;;
57433;SDS011;43277;52.672;6.984;2023-02-18T06:09:33;60.55;;;28.13;;
57433;SDS011;43277;52.672;6.984;2023-02-18T06:11:59;56.78;;;27.63;;
57433;SDS011;43277;52.672;6.984;2023-02-18T06:14:24;55.42;;;26.10;;
57433;SDS011;43277;52.672;6.984;2023-02-18T06:16:50;51.55;;;24.05;;
57433;SDS011;43277;52.672;6.984;2023-02-18T06:19:16;44.03;;;21.95;;
57433;SDS011;43277;52.672;6.984;2023-02-18T06:21:41;48.17;;;24.10;;
57433;SDS011;43277;52.672;6.984;2023-02-18T06:24:07;39.30;;;21.23;;
57433;SDS011;43277;52.672;6.984;2023-02-18T06:26:33;35.63;;;19.60;;
57433;SDS011;43277;52.672;6.984;2023-02-18T06:28:58;36.22;;;18.63;;
57433;SDS011;43277;52.672;6.984;2023-02-18T06:31:24;33.95;;;16.80;;
57433;SDS011;43277;52.672;6.984;2023-02-18T06:33:50;27.60;;;15.07;;
57433;SDS011;43277;52.672;6.984;2023-02-18T06:36:15;27.42;;;14.65;;
57433;SDS011;43277;52.672;6.984;2023-02-18T06:38:42;26.77;;;14.23;;
57433;SDS011;43277;52.672;6.984;2023-02-18T06:41:09;22.55;;;12.70;;
57433;SDS011;43277;52.672;6.984;2023-02-18T06:43:36;19.83;;;11.93;;
57433;SDS011;43277;52.672;6.984;2023-02-18T06:46:02;20.65;;;12.55;;
57433;SDS011;43277;52.672;6.984;2023-02-18T06:48:28;21.25;;;11.80;;
57433;SDS011;43277;52.672;6.984;2023-02-18T06:50:54;17.42;;;9.90;;
57433;SDS011;43277;52.672;6.984;2023-02-18T06:53:20;18.58;;;10.65;;
57433;SDS011;43277;52.672;6.984;2023-02-18T06:55:46;16.63;;;10.10;;
57433;SDS011;43277;52.672;6.984;2023-02-18T06:58:12;14.20;;;9.38;;
57433;SDS011;43277;52.672;6.984;2023-02-18T07:00:38;15.38;;;9.68;;
57433;SDS011;43277;52.672;6.984;2023-02-18T07:03:04;12.70;;;8.23;;
57433;SDS011;43277;52.672;6.984;2023-02-18T07:05:30;10.60;;;7.07;;
57433;SDS011;43277;52.672;6.984;2023-02-18T07:07:55;11.02;;;7.22;;
57433;SDS011;43277;52.672;6.984;2023-02-18T07:10:21;12.70;;;9.13;;
57433;SDS011;43277;52.672;6.984;2023-02-18T07:12:46;11.95;;;8.07;;
57433;SDS011;43277;52.672;6.984;2023-02-18T07:15:12;10.85;;;7.40;;
57433;SDS011;43277;52.672;6.984;2023-02-18T07:17:38;12.80;;;8.80;;
57433;SDS011;43277;52.672;6.984;2023-02-18T07:20:04;12.23;;;8.80;;
57433;SDS011;43277;52.672;6.984;2023-02-18T07:22:30;11.30;;;8.93;;
57433;SDS011;43277;52.672;6.984;2023-02-18T07:24:56;11.38;;;8.35;;
57433;SDS011;43277;52.672;6.984;2023-02-18T07:27:22;11.68;;;9.40;;
57433;SDS011;43277;52.672;6.984;2023-02-18T07:29:48;11.05;;;9.13;;
57433;SDS011;43277;52.672;6.984;2023-02-18T07:32:14;11.20;;;9.55;;
57433;SDS011;43277;52.672;6.984;2023-02-18T07:34:42;11.57;;;9.57;;
57433;SDS011;43277;52.672;6.984;2023-02-18T07:37:07;12.20;;;10.30;;
57433;SDS011;43277;52.672;6.984;2023-02-18T07:39:43;14.50;;;11.23;;
57433;SDS011;43277;52.672;6.984;2023-02-18T07:42:09;12.15;;;10.20;;
57433;SDS011;43277;52.672;6.984;2023-02-18T07:44:35;11.13;;;9.93;;
57433;SDS011;43277;52.672;6.984;2023-02-18T07:47:02;13.60;;;10.77;;
57433;SDS011;43277;52.672;6.984;2023-02-18T07:49:28;12.55;;;11.00;;
57433;SDS011;43277;52.672;6.984;2023-02-18T07:51:54;14.02;;;12.23;;
57433;SDS011;43277;52.672;6.984;2023-02-18T07:54:20;14.48;;;10.98;;
57433;SDS011;43277;52.672;6.984;2023-02-18T07:56:45;13.98;;;10.93;;
57433;SDS011;43277;52.672;6.984;2023-02-18T07:59:11;17.10;;;12.15;;
57433;SDS011;43277;52.672;6.984;2023-02-18T08:01:38;15.80;;;10.88;;
57433;SDS011;43277;52.672;6.984;2023-02-18T08:04:04;13.75;;;10.50;;
57433;SDS011;43277;52.672;6.984;2023-02-18T08:06:31;15.50;;;11.10;;
57433;SDS011;43277;52.672;6.984;2023-02-18T08:09:02;14.48;;;9.73;;
57433;SDS011;43277;52.672;6.984;2023-02-18T08:11:28;14.43;;;9.68;;
57433;SDS011;43277;52.672;6.984;2023-02-18T08:13:54;12.20;;;8.45;;
57433;SDS011;43277;52.672;6.984;2023-02-18T08:16:20;15.30;;;8.73;;
57433;SDS011;43277;52.672;6.984;2023-02-18T08:18:47;13.10;;;8.02;;
57433;SDS011;43277;52.672;6.984;2023-02-18T08:21:13;15.05;;;8.85;;
57433;SDS011;43277;52.672;6.984;2023-02-18T08:23:40;12.05;;;7.80;;
57433;SDS011;43277;52.672;6.984;2023-02-18T08:26:05;13.40;;;7.90;;
57433;SDS011;43277;52.672;6.984;2023-02-18T08:28:31;12.68;;;8.85;;
57433;SDS011;43277;52.672;6.984;2023-02-18T08:30:57;10.82;;;7.65;;
57433;SDS011;43277;52.672;6.984;2023-02-18T08:33:23;14.00;;;8.20;;
57433;SDS011;43277;52.672;6.984;2023-02-18T08:35:50;12.35;;;7.78;;
57433;SDS011;43277;52.672;6.984;2023-02-18T08:38:17;13.65;;;8.23;;
57433;SDS011;43277;52.672;6.984;2023-02-18T08:40:43;13.43;;;8.32;;
57433;SDS011;43277;52.672;6.984;2023-02-18T08:43:08;12.60;;;8.35;;
57433;SDS011;43277;52.672;6.984;2023-02-18T08:45:35;12.75;;;8.70;;
57433;SDS011;43277;52.672;6.984;2023-02-18T08:48:02;14.70;;;8.68;;
57433;SDS011;43277;52.672;6.984;2023-02-18T08:50:31;12.35;;;8.70;;
57433;SDS011;43277;52.672;6.984;2023-02-18T08:52:58;12.20;;;8.10;;
57433;SDS011;43277;52.672;6.984;2023-02-18T08:55:31;11.57;;;8.02;;
57433;SDS011;43277;52.672;6.984;2023-02-18T08:57:58;11.13;;;8.48;;
57433;SDS011;43277;52.672;6.984;2023-02-18T09:00:24;11.88;;;7.78;;
57433;SDS011;43277;52.672;6.984;2023-02-18T09:02:50;13.25;;;8.27;;
57433;SDS011;43277;52.672;6.984;2023-02-18T09:05:15;12.52;;;7.90;;
57433;SDS011;43277;52.672;6.984;2023-02-18T09:07:42;13.70;;;8.75;;
57433;SDS011;43277;52.672;6.984;2023-02-18T09:10:08;12.07;;;7.95;;
57433;SDS011;43277;52.672;6.984;2023-02-18T09:12:34;12.52;;;8.65;;
57433;SDS011;43277;52.672;6.984;2023-02-18T09:15:00;15.85;;;8.02;;
57433;SDS011;43277;52.672;6.984;2023-02-18T09:17:27;13.13;;;7.60;;
57433;SDS011;43277;52.672;6.984;2023-02-18T09:19:53;11.32;;;7.38;;
57433;SDS011;43277;52.672;6.984;2023-02-18T09:22:19;11.70;;;7.18;;
57433;SDS011;43277;52.672;6.984;2023-02-18T09:24:45;13.93;;;7.70;;
57433;SDS011;43277;52.672;6.984;2023-02-18T09:27:11;13.55;;;7.45;;
57433;SDS011;43277;52.672;6.984;2023-02-18T09:29:37;14.10;;;7.20;;
57433;SDS011;43277;52.672;6.984;2023-02-18T09:32:05;15.18;;;7.20;;
57433;SDS011;43277;52.672;6.984;2023-02-18T09:34:32;12.15;;;7.03;;
57433;SDS011;43277;52.672;6.984;2023-02-18T09:36:58;15.95;;;6.93;;
57433;SDS011;43277;52.672;6.984;2023-02-18T09:39:24;13.07;;;6.43;;
57433;SDS011;43277;52.672;6.984;2023-02-18T09:41:53;16.92;;;7.10;;
57433;SDS011;43277;52.672;6.984;2023-02-18T09:44:38;12.32;;;6.35;;
57433;SDS011;43277;52.672;6.984;2023-02-18T09:47:30;14.00;;;5.88;;
57433;SDS011;43277;52.672;6.984;2023-02-18T09:50:35;13.80;;;6.10;;
57433;SDS011;43277;52.672;6.984;2023-02-18T09:53:00;14.50;;;5.60;;
57433;SDS011;43277;52.672;6.984;2023-02-18T09:58:04;10.50;;;3.67;;
57433;SDS011;43277;52.672;6.984;2023-02-18T10:00:37;9.10;;;3.28;;
57433;SDS011;43277;52.672;6.984;2023-02-18T10:03:13;11.05;;;3.70;;
57433;SDS011;43277;52.672;6.984;2023-02-18T10:08:46;14.18;;;3.83;;
57433;SDS011;43277;52.672;6.984;2023-02-18T10:13:47;11.20;;;3.38;;
57433;SDS011;43277;52.672;6.984;2023-02-18T10:16:14;15.25;;;3.92;;
57433;SDS011;43277;52.672;6.984;2023-02-18T10:18:48;16.20;;;4.22;;
57433;SDS011;43277;52.672;6.984;2023-02-18T10:21:24;16.17;;;3.88;;
57433;SDS011;43277;52.672;6.984;2023-02-18T10:24:01;12.98;;;4.43;;
57433;SDS011;43277;52.672;6.984;2023-02-18T10:26:31;14.02;;;4.30;;
57433;SDS011;43277;52.672;6.984;2023-02-18T10:29:00;14.55;;;4.80;;
57433;SDS011;43277;52.672;6.984;2023-02-18T10:31:33;12.43;;;4.03;;
57433;SDS011;43277;52.672;6.984;2023-02-18T10:36:47;16.27;;;4.35;;
57433;SDS011;43277;52.672;6.984;2023-02-18T10:50:25;18.77;;;5.65;;
57433;SDS011;43277;52.672;6.984;2023-02-18T10:52:55;20.08;;;6.88;;
57433;SDS011;43277;52.672;6.984;2023-02-18T10:55:33;18.70;;;6.22;;
57433;SDS011;43277;52.672;6.984;2023-02-18T11:00:56;19.98;;;5.53;;
57433;SDS011;43277;52.672;6.984;2023-02-18T11:03:23;19.13;;;6.95;;
57433;SDS011;43277;52.672;6.984;2023-02-18T11:06:20;21.15;;;5.75;;
57433;SDS011;43277;52.672;6.984;2023-02-18T11:09:56;16.58;;;4.32;;
57433;SDS011;43277;52.672;6.984;2023-02-18T11:12:21;20.00;;;4.30;;
57433;SDS011;43277;52.672;6.984;2023-02-18T11:15:35;18.92;;;4.13;;
57433;SDS011;43277;52.672;6.984;2023-02-18T11:17:38;18.83;;;4.10;;
57433;SDS011;43277;52.672;6.984;2023-02-18T11:20:47;17.33;;;4.20;;
57433;SDS011;43277;52.672;6.984;2023-02-18T11:25:30;19.88;;;4.57;;
57433;SDS011;43277;52.672;6.984;2023-02-18T11:28:02;17.52;;;4.20;;
57433;SDS011;43277;52.672;6.984;2023-02-18T11:30:55;15.52;;;3.72;;
57433;SDS011;43277;52.672;6.984;2023-02-18T11:33:34;18.67;;;4.22;;
57433;SDS011;43277;52.672;6.984;2023-02-18T11:36:32;17.75;;;4.05;;
57433;SDS011;43277;52.672;6.984;2023-02-18T11:39:00;15.90;;;3.72;;
57433;SDS011;43277;52.672;6.984;2023-02-18T11:41:36;16.95;;;3.67;;
57433;SDS011;43277;52.672;6.984;2023-02-18T11:44:16;15.13;;;3.65;;
57433;SDS011;43277;52.672;6.984;2023-02-18T11:46:58;19.70;;;4.25;;
57433;SDS011;43277;52.672;6.984;2023-02-18T11:49:37;15.43;;;3.55;;
57433;SDS011;43277;52.672;6.984;2023-02-18T11:54:43;15.80;;;3.85;;
57433;SDS011;43277;52.672;6.984;2023-02-18T11:57:29;16.25;;;4.38;;
57433;SDS011;43277;52.672;6.984;2023-02-18T11:59:56;19.25;;;3.83;;
57433;SDS011;43277;52.672;6.984;2023-02-18T12:02:33;23.98;;;4.65;;
57433;SDS011;43277;52.672;6.984;2023-02-18T12:05:10;16.55;;;3.60;;
57433;SDS011;43277;52.672;6.984;2023-02-18T12:07:50;17.42;;;4.15;;
57433;SDS011;43277;52.672;6.984;2023-02-18T12:10:26;18.75;;;3.92;;
57433;SDS011;43277;52.672;6.984;2023-02-18T12:13:06;20.65;;;4.07;;
57433;SDS011;43277;52.672;6.984;2023-02-18T12:15:56;15.80;;;4.20;;
57433;SDS011;43277;52.672;6.984;2023-02-18T12:18:29;14.43;;;3.85;;
57433;SDS011;43277;52.672;6.984;2023-02-18T12:26:34;17.85;;;3.97;;
57433;SDS011;43277;52.672;6.984;2023-02-18T12:29:30;15.93;;;4.05;;
57433;SDS011;43277;52.672;6.984;2023-02-18T12:32:04;16.63;;;4.15;;
57433;SDS011;43277;52.672;6.984;2023-02-18T12:37:10;16.77;;;3.63;;
57433;SDS011;43277;52.672;6.984;2023-02-18T12:43:06;15.27;;;3.78;;
57433;SDS011;43277;52.672;6.984;2023-02-18T12:51:13;18.13;;;4.47;;
57433;SDS011;43277;52.672;6.984;2023-02-18T12:53:52;18.23;;;3.95;;
57433;SDS011;43277;52.672;6.984;2023-02-18T12:59:48;15.07;;;3.78;;
57433;SDS011;43277;52.672;6.984;2023-02-18T13:11:35;14.77;;;3.90;;
57433;SDS011;43277;52.672;6.984;2023-02-18T13:14:22;16.50;;;3.45;;
57433;SDS011;43277;52.672;6.984;2023-02-18T13:21:54;17.17;;;3.65;;
57433;SDS011;43277;52.672;6.984;2023-02-18T13:24:38;15.75;;;3.45;;
57433;SDS011;43277;52.672;6.984;2023-02-18T13:29:57;16.65;;;3.67;;
57433;SDS011;43277;52.672;6.984;2023-02-18T13:40:43;15.07;;;3.70;;
57433;SDS011;43277;52.672;6.984;2023-02-18T13:45:41;13.07;;;3.63;;
57433;SDS011;43277;52.672;6.984;2023-02-18T13:48:25;14.75;;;3.67;;
57433;SDS011;43277;52.672;6.984;2023-02-18T13:50:51;10.93;;;3.03;;
57433;SDS011;43277;52.672;6.984;2023-02-18T13:53:24;14.73;;;3.50;;
57433;SDS011;43277;52.672;6.984;2023-02-18T13:58:28;13.77;;;3.53;;
57433;SDS011;43277;52.672;6.984;2023-02-18T14:06:16;13.15;;;3.20;;
57433;SDS011;43277;52.672;6.984;2023-02-18T14:09:33;13.90;;;3.30;;
57433;SDS011;43277;52.672;6.984;2023-02-18T14:22:32;13.02;;;3.53;;
57433;SDS011;43277;52.672;6.984;2023-02-18T14:27:38;13.55;;;3.60;;
57433;SDS011;43277;52.672;6.984;2023-02-18T14:30:06;14.52;;;3.60;;
57433;SDS011;43277;52.672;6.984;2023-02-18T14:32:42;13.95;;;3.40;;
57433;SDS011;43277;52.672;6.984;2023-02-18T14:35:19;14.48;;;3.40;;
57433;SDS011;43277;52.672;6.984;2023-02-18T14:51:41;14.95;;;4.47;;
57433;SDS011;43277;52.672;6.984;2023-02-18T14:54:13;16.95;;;4.18;;
57433;SDS011;43277;52.672;6.984;2023-02-18T14:56:48;16.55;;;3.83;;
57433;SDS011;43277;52.672;6.984;2023-02-18T14:59:20;16.27;;;4.43;;
57433;SDS011;43277;52.672;6.984;2023-02-18T15:01:52;14.73;;;3.70;;
57433;SDS011;43277;52.672;6.984;2023-02-18T15:04:19;13.50;;;3.60;;
57433;SDS011;43277;52.672;6.984;2023-02-18T15:06:45;15.63;;;3.65;;
57433;SDS011;43277;52.672;6.984;2023-02-18T15:09:20;17.13;;;4.22;;
57433;SDS011;43277;52.672;6.984;2023-02-18T15:11:50;17.58;;;4.03;;
57433;SDS011;43277;52.672;6.984;2023-02-18T15:14:20;14.07;;;3.78;;
57433;SDS011;43277;52.672;6.984;2023-02-18T15:16:50;16.27;;;3.92;;
57433;SDS011;43277;52.672;6.984;2023-02-18T15:19:20;13.43;;;3.50;;
57433;SDS011;43277;52.672;6.984;2023-02-18T15:21:48;15.55;;;3.75;;
57433;SDS011;43277;52.672;6.984;2023-02-18T15:27:10;14.40;;;3.90;;
57433;SDS011;43277;52.672;6.984;2023-02-18T15:29:37;13.77;;;3.50;;
57433;SDS011;43277;52.672;6.984;2023-02-18T15:32:17;15.40;;;3.90;;
57433;SDS011;43277;52.672;6.984;2023-02-18T15:34:48;15.73;;;3.80;;
57433;SDS011;43277;52.672;6.984;2023-02-18T15:37:15;14.20;;;3.58;;
57433;SDS011;43277;52.672;6.984;2023-02-18T15:39:41;12.65;;;3.30;;
57433;SDS011;43277;52.672;6.984;2023-02-18T15:45:02;14.57;;;3.87;;
57433;SDS011;43277;52.672;6.984;2023-02-18T15:47:49;16.55;;;3.53;;
57433;SDS011;43277;52.672;6.984;2023-02-18T15:50:22;15.50;;;4.07;;
57433;SDS011;43277;52.672;6.984;2023-02-18T15:52:54;15.23;;;3.75;;
57433;SDS011;43277;52.672;6.984;2023-02-18T15:55:30;17.25;;;4.00;;
57433;SDS011;43277;52.672;6.984;2023-02-18T15:57:59;16.60;;;3.67;;
57433;SDS011;43277;52.672;6.984;2023-02-18T16:00:31;14.98;;;4.35;;
57433;SDS011;43277;52.672;6.984;2023-02-18T16:03:01;19.30;;;4.00;;
57433;SDS011;43277;52.672;6.984;2023-02-18T16:05:35;13.88;;;3.60;;
57433;SDS011;43277;52.672;6.984;2023-02-18T16:08:09;14.18;;;3.80;;
57433;SDS011;43277;52.672;6.984;2023-02-18T16:10:43;13.18;;;3.58;;
57433;SDS011;43277;52.672;6.984;2023-02-18T16:13:12;15.10;;;4.00;;
57433;SDS011;43277;52.672;6.984;2023-02-18T16:15:40;15.00;;;3.92;;
57433;SDS011;43277;52.672;6.984;2023-02-18T16:21:04;17.20;;;3.85;;
57433;SDS011;43277;52.672;6.984;2023-02-18T16:23:43;16.08;;;4.43;;
57433;SDS011;43277;52.672;6.984;2023-02-18T16:26:22;14.90;;;3.78;;
57433;SDS011;43277;52.672;6.984;2023-02-18T16:28:51;16.45;;;4.28;;
57433;SDS011;43277;52.672;6.984;2023-02-18T16:31:18;18.85;;;4.28;;
57433;SDS011;43277;52.672;6.984;2023-02-18T16:33:45;16.58;;;4.65;;
57433;SDS011;43277;52.672;6.984;2023-02-18T16:36:14;14.77;;;4.00;;
57433;SDS011;43277;52.672;6.984;2023-02-18T16:38:41;17.55;;;3.72;;
57433;SDS011;43277;52.672;6.984;2023-02-18T16:41:08;11.93;;;3.50;;
57433;SDS011;43277;52.672;6.984;2023-02-18T16:43:36;18.77;;;3.95;;
57433;SDS011;43277;52.672;6.984;2023-02-18T16:46:06;17.20;;;3.47;;
57433;SDS011;43277;52.672;6.984;2023-02-18T16:48:40;14.43;;;3.90;;
57433;SDS011;43277;52.672;6.984;2023-02-18T16:51:23;16.17;;;3.42;;
57433;SDS011;43277;52.672;6.984;2023-02-18T16:53:55;13.73;;;3.38;;
57433;SDS011;43277;52.672;6.984;2023-02-18T16:56:22;15.70;;;4.07;;
57433;SDS011;43277;52.672;6.984;2023-02-18T16:58:49;19.02;;;4.47;;
57433;SDS011;43277;52.672;6.984;2023-02-18T17:01:20;15.68;;;3.70;;
57433;SDS011;43277;52.672;6.984;2023-02-18T17:04:00;18.90;;;3.75;;
57433;SDS011;43277;52.672;6.984;2023-02-18T17:06:26;13.50;;;3.25;;
57433;SDS011;43277;52.672;6.984;2023-02-18T17:08:52;17.95;;;3.92;;
57433;SDS011;43277;52.672;6.984;2023-02-18T17:11:20;17.85;;;4.03;;
57433;SDS011;43277;52.672;6.984;2023-02-18T17:13:48;15.35;;;4.07;;
57433;SDS011;43277;52.672;6.984;2023-02-18T17:16:14;18.27;;;4.13;;
57433;SDS011;43277;52.672;6.984;2023-02-18T17:18:40;19.60;;;3.88;;
57433;SDS011;43277;52.672;6.984;2023-02-18T17:21:11;17.98;;;4.80;;
57433;SDS011;43277;52.672;6.984;2023-02-18T17:23:41;16.00;;;3.85;;